Time;durP1;ratioP1;P1;durP2;ratioP2;P2;SDS_P1;SDS_P2;PMS_P1;PMS_P2;Temp;Humidity;BMP_temperature;BMP_pressure;BME280_temperature;BME280_humidity;BME280_pressure;Samples;Min_cycle;Max_cycle;Signal;HPM_P1;HPM_P2
2020/12/05 00:01:00;;;;;;;;;;;;;21.20;95736.00;;;;5074073;28;1314;-37
2020/12/05 00:03:26;;;;;;;;;;;;;21.20;95730.00;;;;5071641;28;1905;-40
2020/12/05 00:05:52;;;;;;;;;;;;;21.20;95735.00;;;;5071844;28;1437;-42
2020/12/05 00:08:18;;;;;;;;;;;;;21.10;95734.00;;;;5071619;28;1027;-38
2020/12/05 00:10:44;;;;;;;;;;;;;21.10;95735.00;;;;5075844;28;1284;-38
2020/12/05 00:13:10;;;;;;;;;;;;;21.10;95726.00;;;;5073479;28;1392;-38
2020/12/05 00:15:36;;;;;;;;;;;;;21.10;95709.00;;;;5071983;28;1068;-40
2020/12/05 00:18:02;;;;;;;;;;;;;21.10;95702.00;;;;5071861;28;1154;-39
2020/12/05 00:20:28;;;;;;;;;;;;;21.00;95721.00;;;;5071473;28;1170;-41
2020/12/05 00:22:54;;;;;;;;;;;;;21.00;95723.00;;;;5071943;28;888;-39
2020/12/05 00:25:20;;;;;;;;;;;;;21.00;95727.00;;;;5071411;28;1992;-39
2020/12/05 00:27:47;;;;;;;;;;;;;21.00;95727.00;;;;5072016;28;1017;-37
2020/12/05 00:30:13;;;;;;;;;;;;;21.00;95732.00;;;;5071655;28;1265;-39
2020/12/05 00:32:40;;;;;;;;;;;;;21.00;95732.00;;;;5060241;28;1238;-40
2020/12/05 00:35:06;;;;;;;;;;;;;20.90;95746.00;;;;5051032;28;1132;-40
2020/12/05 00:37:32;;;;;;;;;;;;;20.90;95746.00;;;;5049455;28;1249;-41
2020/12/05 00:39:58;;;;;;;;;;;;;20.90;95741.00;;;;5049345;28;1029;-40
2020/12/05 00:42:24;;;;;;;;;;;;;20.80;95747.00;;;;5061908;28;1742;-37
2020/12/05 00:44:50;;;;;;;;;;;;;20.80;95755.00;;;;5091729;28;1905;-40
2020/12/05 00:47:16;;;;;;;;;;;;;20.80;95750.00;;;;5091698;28;1012;-39
2020/12/05 00:49:43;;;;;;;;;;;;;20.80;95753.00;;;;5091482;28;1099;-39
2020/12/05 00:52:09;;;;;;;;;;;;;20.80;95746.00;;;;5092072;28;1175;-38
2020/12/05 00:54:35;;;;;;;;;;;;;20.70;95748.00;;;;5095274;28;1140;-39
2020/12/05 00:57:01;;;;;;;;;;;;;20.70;95769.00;;;;5095391;28;1009;-40
2020/12/05 00:59:27;;;;;;;;;;;;;20.70;95770.00;;;;5089967;28;1272;-42
2020/12/05 01:01:53;;;;;;;;;;;;;20.70;95766.00;;;;5074895;28;1276;-39
2020/12/05 01:04:19;;;;;;;;;;;;;20.60;95768.00;;;;5074575;28;1905;-37
2020/12/05 01:06:46;;;;;;;;;;;;;20.60;95757.00;;;;5074809;28;1047;-40
2020/12/05 01:09:12;;;;;;;;;;;;;20.60;95757.00;;;;5074214;28;1128;-41
2020/12/05 01:11:38;;;;;;;;;;;;;20.60;95775.00;;;;5074910;28;1193;-41
2020/12/05 01:14:04;;;;;;;;;;;;;20.60;95763.00;;;;5074538;28;1341;-41
2020/12/05 01:16:31;;;;;;;;;;;;;20.50;95752.00;;;;5074715;28;1448;-39
2020/12/05 01:18:57;;;;;;;;;;;;;20.50;95750.00;;;;5074186;28;1096;-39
2020/12/05 01:21:23;;;;;;;;;;;;;20.50;95746.00;;;;5073880;28;1527;-40
2020/12/05 01:23:50;;;;;;;;;;;;;20.50;95734.00;;;;5074212;28;1902;-39
2020/12/05 01:26:20;;;;;;;;;;;;;20.50;95738.00;;;;5074391;28;1104;-40
2020/12/05 01:28:46;;;;;;;;;;;;;20.50;95750.00;;;;5074597;28;1171;-39
2020/12/05 01:31:12;;;;;;;;;;;;;20.50;95744.00;;;;5074076;28;1208;-38
2020/12/05 01:33:38;;;;;;;;;;;;;20.40;95744.00;;;;5074430;28;1086;-38
2020/12/05 01:36:04;;;;;;;;;;;;;20.40;95738.00;;;;5074165;28;1021;-40
2020/12/05 01:38:30;;;;;;;;;;;;;20.40;95739.00;;;;5074158;28;1077;-40
2020/12/05 01:40:57;;;;;;;;;;;;;20.40;95737.00;;;;5074264;28;1188;-39
2020/12/05 01:43:23;;;;;;;;;;;;;20.40;95736.00;;;;5074111;28;1979;-38
2020/12/05 01:45:49;;;;;;;;;;;;;20.40;95737.00;;;;5074362;28;1109;-38
2020/12/05 01:48:16;;;;;;;;;;;;;20.40;95742.00;;;;5074154;28;1024;-39
2020/12/05 01:50:42;;;;;;;;;;;;;20.40;95728.00;;;;5073818;28;1345;-37
2020/12/05 01:53:08;;;;;;;;;;;;;20.40;95746.00;;;;5073489;28;1124;-40
2020/12/05 01:55:34;;;;;;;;;;;;;20.30;95743.00;;;;5074257;28;1040;-39
2020/12/05 01:58:01;;;;;;;;;;;;;20.30;95740.00;;;;5073943;28;1025;-40
2020/12/05 02:00:26;;;;;;;;;;;;;20.30;95737.00;;;;5073646;28;1293;-41
2020/12/05 02:02:52;;;;;;;;;;;;;20.30;95748.00;;;;5072973;28;1780;-42
2020/12/05 02:05:21;;;;;;;;;;;;;20.30;95734.00;;;;5073181;28;1993;-40
2020/12/05 02:07:48;;;;;;;;;;;;;20.30;95728.00;;;;5073473;28;1172;-42
2020/12/05 02:10:16;;;;;;;;;;;;;20.30;95728.00;;;;5073793;28;1068;-40
2020/12/05 02:12:45;;;;;;;;;;;;;20.30;95720.00;;;;5073318;28;1268;-41
2020/12/05 02:15:12;;;;;;;;;;;;;20.30;95721.00;;;;5073795;28;1065;-40
2020/12/05 02:17:39;;;;;;;;;;;;;20.20;95708.00;;;;5073625;28;1100;-40
2020/12/05 02:20:07;;;;;;;;;;;;;20.20;95710.00;;;;5072972;28;1168;-40
2020/12/05 02:22:35;;;;;;;;;;;;;20.20;95700.00;;;;5073120;28;1202;-39
2020/12/05 02:25:02;;;;;;;;;;;;;20.20;95695.00;;;;5073460;28;1906;-40
2020/12/05 02:27:29;;;;;;;;;;;;;20.20;95708.00;;;;5073286;28;1117;-39
2020/12/05 02:29:55;;;;;;;;;;;;;20.20;95711.00;;;;5072975;28;1180;-38
2020/12/05 02:32:21;;;;;;;;;;;;;20.10;95718.00;;;;5073045;28;1292;-40
2020/12/05 02:34:47;;;;;;;;;;;;;20.10;95727.00;;;;5073118;28;1081;-40
2020/12/05 02:37:13;;;;;;;;;;;;;20.10;95727.00;;;;5073102;28;1088;-39
2020/12/05 02:39:39;;;;;;;;;;;;;20.10;95715.00;;;;5072986;28;1096;-40
2020/12/05 02:42:06;;;;;;;;;;;;;20.10;95727.00;;;;5076462;28;1710;-38
2020/12/05 02:44:32;;;;;;;;;;;;;20.10;95732.00;;;;5093035;28;1906;-42
2020/12/05 02:46:58;;;;;;;;;;;;;20.00;95739.00;;;;5093175;28;1272;-40
2020/12/05 02:49:24;;;;;;;;;;;;;20.00;95731.00;;;;5092858;28;1132;-40
2020/12/05 02:51:50;;;;;;;;;;;;;20.00;95726.00;;;;5092681;28;1193;-41
2020/12/05 02:54:16;;;;;;;;;;;;;20.00;95726.00;;;;5093136;28;1175;-41
2020/12/05 02:56:42;;;;;;;;;;;;;20.00;95730.00;;;;5093192;28;1016;-41
2020/12/05 02:59:09;;;;;;;;;;;;;20.00;95726.00;;;;5090800;28;1351;-41
2020/12/05 03:01:35;;;;;;;;;;;;;20.00;95733.00;;;;5072501;28;1219;-36
2020/12/05 03:04:01;;;;;;;;;;;;;19.90;95733.00;;;;5072986;28;1973;-40
2020/12/05 03:06:27;;;;;;;;;;;;;19.90;95735.00;;;;5072862;28;1075;-40
2020/12/05 03:08:53;;;;;;;;;;;;;19.90;95746.00;;;;5073036;28;1060;-39
2020/12/05 03:11:19;;;;;;;;;;;;;19.90;95740.00;;;;5072200;28;1310;-40
2020/12/05 03:13:45;;;;;;;;;;;;;19.90;95746.00;;;;5072331;28;1286;-39
2020/12/05 03:16:11;;;;;;;;;;;;;19.90;95748.00;;;;5071589;28;981;-41
2020/12/05 03:18:37;;;;;;;;;;;;;19.90;95753.00;;;;5072424;28;1135;-39
2020/12/05 03:21:03;;;;;;;;;;;;;19.90;95755.00;;;;5072146;28;1270;-37
2020/12/05 03:23:29;;;;;;;;;;;;;19.90;95744.00;;;;5072357;28;1005;-39
2020/12/05 03:25:56;;;;;;;;;;;;;19.80;95743.00;;;;5072338;28;1910;-38
2020/12/05 03:28:23;;;;;;;;;;;;;19.80;95754.00;;;;5072279;28;1069;-40
2020/12/05 03:30:49;;;;;;;;;;;;;19.80;95745.00;;;;5072057;28;1294;-41
2020/12/05 03:33:16;;;;;;;;;;;;;19.80;95755.00;;;;5072433;28;1021;-41
2020/12/05 03:35:42;;;;;;;;;;;;;19.80;95756.00;;;;5072457;28;1025;-39
2020/12/05 03:38:08;;;;;;;;;;;;;19.80;95753.00;;;;5071772;28;1061;-39
2020/12/05 03:40:37;;;;;;;;;;;;;19.80;95759.00;;;;5071201;28;1516;-37
2020/12/05 03:43:03;;;;;;;;;;;;;19.80;95749.00;;;;5083689;28;1663;-37
2020/12/05 03:45:29;;;;;;;;;;;;;19.80;95753.00;;;;5092274;28;2034;-40
2020/12/05 03:47:55;;;;;;;;;;;;;19.80;95749.00;;;;5092508;28;1296;-40
2020/12/05 03:50:22;;;;;;;;;;;;;19.70;95755.00;;;;5092395;28;1017;-42
2020/12/05 03:52:48;;;;;;;;;;;;;19.80;95761.00;;;;5092358;28;1270;-39
2020/12/05 03:55:14;;;;;;;;;;;;;19.80;95755.00;;;;5092263;28;1068;-40
2020/12/05 03:57:40;;;;;;;;;;;;;19.70;95754.00;;;;5092174;28;1024;-40
2020/12/05 04:00:06;;;;;;;;;;;;;19.70;95762.00;;;;5081414;28;1375;-39
2020/12/05 04:02:32;;;;;;;;;;;;;19.70;95755.00;;;;5071725;28;1215;-40
2020/12/05 04:04:58;;;;;;;;;;;;;19.70;95755.00;;;;5072033;28;1992;-41
2020/12/05 04:07:25;;;;;;;;;;;;;19.70;95768.00;;;;5071732;28;1209;-40
2020/12/05 04:09:50;;;;;;;;;;;;;19.70;95760.00;;;;5071871;28;1262;-39
2020/12/05 04:12:16;;;;;;;;;;;;;19.70;95773.00;;;;5071498;28;1249;-39
2020/12/05 04:14:42;;;;;;;;;;;;;19.70;95782.00;;;;5071864;28;1276;-39
2020/12/05 04:17:08;;;;;;;;;;;;;19.70;95786.00;;;;5071487;28;1192;-41
2020/12/05 04:19:34;;;;;;;;;;;;;19.60;95776.00;;;;5071700;28;1117;-40
2020/12/05 04:22:01;;;;;;;;;;;;;19.70;95779.00;;;;5071474;28;1281;-40
2020/12/05 04:24:28;;;;;;;;;;;;;19.60;95785.00;;;;5071821;28;1910;-41
2020/12/05 04:26:54;;;;;;;;;;;;;19.70;95781.00;;;;5071800;28;1095;-40
2020/12/05 04:29:20;;;;;;;;;;;;;19.70;95785.00;;;;5075192;28;1175;-37
2020/12/05 04:31:45;;;;;;;;;;;;;19.70;95775.00;;;;5075409;28;1517;-37
2020/12/05 04:34:11;;;;;;;;;;;;;19.80;95775.00;;;;5075488;28;1125;-39
2020/12/05 04:36:37;;;;;;;;;;;;;19.80;95772.00;;;;5075482;28;1092;-38
2020/12/05 04:39:03;;;;;;;;;;;;;19.80;95779.00;;;;5075389;28;1026;-40
2020/12/05 04:41:30;;;;;;;;;;;;;19.90;95783.00;;;;5075026;28;1245;-40
2020/12/05 04:43:56;;;;;;;;;;;;;19.90;95782.00;;;;5093736;28;1910;-38
2020/12/05 04:46:22;;;;;;;;;;;;;19.90;95788.00;;;;5095841;28;1020;-37
2020/12/05 04:48:48;;;;;;;;;;;;;19.90;95787.00;;;;5095763;28;1251;-37
2020/12/05 04:51:17;;;;;;;;;;;;;20.00;95788.00;;;;5095260;28;1445;-38
2020/12/05 04:53:45;;;;;;;;;;;;;20.00;95787.00;;;;5095116;28;1092;-40
2020/12/05 04:56:11;;;;;;;;;;;;;20.00;95792.00;;;;5095310;28;1132;-37
2020/12/05 04:58:37;;;;;;;;;;;;;20.00;95785.00;;;;5095152;28;1162;-39
2020/12/05 05:01:03;;;;;;;;;;;;;20.10;95785.00;;;;5076696;28;1391;-40
2020/12/05 05:03:29;;;;;;;;;;;;;20.10;95801.00;;;;5074789;28;1020;-39
2020/12/05 05:05:55;;;;;;;;;;;;;20.10;95795.00;;;;5074912;28;1983;-39
2020/12/05 05:08:23;;;;;;;;;;;;;20.10;95805.00;;;;5074908;28;1016;-38
2020/12/05 05:10:49;;;;;;;;;;;;;20.10;95804.00;;;;5074699;28;1295;-36
2020/12/05 05:13:17;;;;;;;;;;;;;20.10;95803.00;;;;5074469;28;1124;-37
2020/12/05 05:15:43;;;;;;;;;;;;;20.20;95790.00;;;;5074829;28;1076;-39
2020/12/05 05:18:10;;;;;;;;;;;;;20.20;95790.00;;;;5074752;28;1081;-41
2020/12/05 05:20:39;;;;;;;;;;;;;20.20;95797.00;;;;5074186;28;1262;-40
2020/12/05 05:23:09;;;;;;;;;;;;;20.20;95796.00;;;;5071815;28;1938;-36
2020/12/05 05:25:50;;;;;;;;;;;;;20.20;95807.00;;;;5074263;28;1983;-38
2020/12/05 05:28:20;;;;;;;;;;;;;20.30;95802.00;;;;5074286;28;1501;-39
2020/12/05 05:31:03;;;;;;;;;;;;;20.30;95810.00;;;;5074361;28;1302;-35
2020/12/05 05:33:39;;;;;;;;;;;;;20.30;95820.00;;;;5074449;28;1017;-35
2020/12/05 05:36:29;;;;;;;;;;;;;20.30;95821.00;;;;5074466;28;1012;-37
2020/12/05 05:38:56;;;;;;;;;;;;;20.40;95831.00;;;;5062878;28;1853;-38
2020/12/05 05:41:22;;;;;;;;;;;;;20.40;95826.00;;;;5074109;28;1305;-44
2020/12/05 05:44:06;;;;;;;;;;;;;20.40;95830.00;;;;5074006;28;1693;-40
2020/12/05 05:46:33;;;;;;;;;;;;;20.40;95820.00;;;;5074370;28;1091;-38
2020/12/05 05:48:59;;;;;;;;;;;;;20.40;95824.00;;;;5074524;28;1079;-39
2020/12/05 05:51:41;;;;;;;;;;;;;20.40;95838.00;;;;5073834;28;1183;-42
2020/12/05 05:54:17;;;;;;;;;;;;;20.50;95833.00;;;;5072857;28;1099;-39
2020/12/05 05:56:52;;;;;;;;;;;;;20.50;95826.00;;;;5073723;28;1079;-38
2020/12/05 05:59:18;;;;;;;;;;;;;20.50;95817.00;;;;5073796;28;1379;-37
2020/12/05 06:01:45;;;;;;;;;;;;;20.50;95815.00;;;;5073851;28;1306;-39
2020/12/05 06:04:11;;;;;;;;;;;;;20.50;95817.00;;;;5073413;28;1981;-39
2020/12/05 06:06:37;;;;;;;;;;;;;20.50;95814.00;;;;5073812;28;1187;-39
2020/12/05 06:09:03;;;;;;;;;;;;;20.60;95812.00;;;;5073518;28;1128;-39
2020/12/05 06:11:29;;;;;;;;;;;;;20.60;95826.00;;;;5073219;28;1302;-40
2020/12/05 06:13:55;;;;;;;;;;;;;20.60;95828.00;;;;5073342;28;1181;-40
2020/12/05 06:16:21;;;;;;;;;;;;;20.60;95822.00;;;;5073263;28;1168;-38
2020/12/05 06:18:48;;;;;;;;;;;;;20.60;95825.00;;;;5073372;28;1175;-37
2020/12/05 06:21:14;;;;;;;;;;;;;20.60;95835.00;;;;5073225;28;1287;-38
2020/12/05 06:23:41;;;;;;;;;;;;;20.60;95826.00;;;;5073220;28;1120;-39
2020/12/05 06:26:07;;;;;;;;;;;;;20.70;95833.00;;;;5073032;28;1902;-39
2020/12/05 06:28:33;;;;;;;;;;;;;20.70;95839.00;;;;5073239;28;1088;-37
2020/12/05 06:30:59;;;;;;;;;;;;;20.70;95838.00;;;;5073085;28;1201;-40
2020/12/05 06:33:40;;;;;;;;;;;;;20.70;95842.00;;;;5073137;28;1017;-39
2020/12/05 06:36:27;;;;;;;;;;;;;20.70;95850.00;;;;5072600;28;1168;-38
2020/12/05 06:39:08;;;;;;;;;;;;;20.70;95840.00;;;;5072498;28;2237;-39
2020/12/05 06:41:35;;;;;;;;;;;;;20.80;95854.00;;;;5073153;28;1142;-40
2020/12/05 06:44:07;;;;;;;;;;;;;20.80;95849.00;;;;5092293;28;1898;-38
2020/12/05 06:46:45;;;;;;;;;;;;;20.90;95860.00;;;;5093212;28;1175;-40
2020/12/05 06:49:11;;;;;;;;;;;;;20.90;95864.00;;;;5093205;28;1124;-40
2020/12/05 06:51:36;;;;;;;;;;;;;21.00;95872.00;;;;5092571;28;1268;-38
2020/12/05 06:54:02;;;;;;;;;;;;;21.00;95868.00;;;;5093244;28;1186;-38
2020/12/05 06:56:28;;;;;;;;;;;;;21.10;95867.00;;;;5093227;28;1008;-37
2020/12/05 06:58:58;;;;;;;;;;;;;21.10;95871.00;;;;5092715;28;1398;-38
2020/12/05 07:01:28;;;;;;;;;;;;;21.20;95875.00;;;;5072195;28;1280;-39
2020/12/05 07:03:54;;;;;;;;;;;;;21.30;95886.00;;;;5072545;28;1100;-37
2020/12/05 07:06:24;;;;;;;;;;;;;21.30;95886.00;;;;5072638;28;1902;-40
2020/12/05 07:08:51;;;;;;;;;;;;;21.30;95895.00;;;;5072629;28;1075;-40
2020/12/05 07:11:18;;;;;;;;;;;;;21.40;95899.00;;;;5071975;28;1286;-37
2020/12/05 07:13:44;;;;;;;;;;;;;21.50;95907.00;;;;5072173;28;2079;-38
2020/12/05 07:16:14;;;;;;;;;;;;;21.50;95899.00;;;;5072099;28;1204;-39
2020/12/05 07:18:40;;;;;;;;;;;;;21.60;95894.00;;;;5072408;28;1284;-38
2020/12/05 07:21:06;;;;;;;;;;;;;21.10;95893.00;;;;5069912;28;1352;-39
2020/12/05 07:23:32;;;;;;;;;;;;;20.50;95894.00;;;;5071434;28;1276;-41
2020/12/05 07:25:58;;;;;;;;;;;;;20.20;95896.00;;;;5071577;28;1991;-39
2020/12/05 07:28:24;;;;;;;;;;;;;20.00;95895.00;;;;5071823;28;1076;-41
2020/12/05 07:30:51;;;;;;;;;;;;;20.50;95897.00;;;;5071796;28;1380;-39
2020/12/05 07:33:17;;;;;;;;;;;;;21.10;95902.00;;;;5072093;28;1186;-39
2020/12/05 07:35:43;;;;;;;;;;;;;21.30;95910.00;;;;5072165;28;1128;-37
2020/12/05 07:38:16;;;;;;;;;;;;;21.50;95912.00;;;;5071096;28;1260;-37
2020/12/05 07:40:42;;;;;;;;;;;;;21.60;95915.00;;;;5069966;28;1204;-40
2020/12/05 07:43:17;;;;;;;;;;;;;21.60;95911.00;;;;5072747;28;1975;-39
2020/12/05 07:45:44;;;;;;;;;;;;;21.70;95916.00;;;;5071513;28;1905;-40
2020/12/05 07:48:13;;;;;;;;;;;;;21.80;95915.00;;;;5071406;28;1280;-40
2020/12/05 07:50:40;;;;;;;;;;;;;21.90;95916.00;;;;5071672;28;1211;-40
2020/12/05 07:53:18;;;;;;;;;;;;;21.90;95928.00;;;;5071131;28;1133;-40
2020/12/05 07:55:44;;;;;;;;;;;;;22.00;95923.00;;;;5072036;28;1172;-39
2020/12/05 07:58:10;;;;;;;;;;;;;22.00;95917.00;;;;5070625;28;1352;-40
2020/12/05 08:00:36;;;;;;;;;;;;;22.10;95918.00;;;;5071306;28;1329;-40
2020/12/05 08:03:03;;;;;;;;;;;;;22.10;95931.00;;;;5071578;28;1009;-40
2020/12/05 08:05:35;;;;;;;;;;;;;22.20;95931.00;;;;5071819;28;1910;-41
2020/12/05 08:08:02;;;;;;;;;;;;;22.20;95936.00;;;;5071740;28;1124;-40
2020/12/05 08:10:29;;;;;;;;;;;;;22.30;95941.00;;;;5071884;28;1001;-38
2020/12/05 08:13:26;;;;;;;;;;;;;22.30;95944.00;;;;5071534;28;1009;-36
2020/12/05 08:15:53;;;;;;;;;;;;;22.30;95945.00;;;;5089147;28;1160;-37
2020/12/05 08:18:19;;;;;;;;;;;;;22.60;95958.00;;;;5091112;28;1116;-45
2020/12/05 08:20:45;;;;;;;;;;;;;22.70;95960.00;;;;5091306;28;1211;-41
2020/12/05 08:23:28;;;;;;;;;;;;;22.70;95966.00;;;;5092361;28;1024;-40
2020/12/05 08:25:58;;;;;;;;;;;;;22.80;95966.00;;;;5092211;28;1906;-45
2020/12/05 08:28:24;;;;;;;;;;;;;22.90;95980.00;;;;5064203;28;2120;-44
2020/12/05 08:30:50;;;;;;;;;;;;;22.90;95986.00;;;;5070915;28;1815;-46
2020/12/05 08:33:16;;;;;;;;;;;;;23.00;95986.00;;;;5051139;28;1116;-48
2020/12/05 08:35:42;;;;;;;;;;;;;23.10;95986.00;;;;5061337;28;2144;-46
2020/12/05 08:38:10;;;;;;;;;;;;;23.10;95986.00;;;;5071422;28;1009;-37
2020/12/05 08:40:37;;;;;;;;;;;;;23.20;96000.00;;;;5071514;28;1214;-39
2020/12/05 08:43:03;;;;;;;;;;;;;23.30;96004.00;;;;5082389;28;1915;-38
2020/12/05 08:45:29;;;;;;;;;;;;;23.30;95997.00;;;;5071342;28;1977;-44
2020/12/05 08:47:55;;;;;;;;;;;;;23.40;95998.00;;;;5071251;28;1125;-45
2020/12/05 08:50:21;;;;;;;;;;;;;23.50;96004.00;;;;5070955;28;1120;-43
2020/12/05 08:52:47;;;;;;;;;;;;;23.50;96015.00;;;;5070986;28;1258;-43
2020/12/05 08:55:13;;;;;;;;;;;;;23.60;96025.00;;;;5071308;28;1153;-44
2020/12/05 08:57:51;;;;;;;;;;;;;23.60;96032.00;;;;5071608;28;1623;-33
2020/12/05 09:00:19;;;;;;;;;;;;;23.70;96037.00;;;;5070846;28;1938;-35
2020/12/05 09:02:45;;;;;;;;;;;;;23.80;96017.00;;;;5071037;28;1245;-31
2020/12/05 09:05:11;;;;;;;;;;;;;23.80;96036.00;;;;5068929;28;1928;-39
2020/12/05 09:07:37;;;;;;;;;;;;;23.70;96040.00;;;;5070889;28;1272;-35
2020/12/05 09:10:13;;;;;;;;;;;;;23.20;96050.00;;;;5070790;28;1284;-39
2020/12/05 09:12:40;;;;;;;;;;;;;22.90;96047.00;;;;5067475;28;1226;-38
2020/12/05 09:15:06;;;;;;;;;;;;;22.70;96045.00;;;;5072804;28;1208;-39
2020/12/05 09:17:34;;;;;;;;;;;;;22.60;96042.00;;;;5072532;28;1610;-40
2020/12/05 09:20:09;;;;;;;;;;;;;22.40;96036.00;;;;5071808;28;1660;-38
2020/12/05 09:22:35;;;;;;;;;;;;;22.50;96051.00;;;;5070762;28;2266;-40
2020/12/05 09:25:01;;;;;;;;;;;;;22.70;96048.00;;;;5070464;28;1950;-39
2020/12/05 09:27:33;;;;;;;;;;;;;23.00;96057.00;;;;5067117;28;1839;-41
2020/12/05 09:30:00;;;;;;;;;;;;;23.20;96070.00;;;;5069444;28;2045;-40
2020/12/05 09:32:35;;;;;;;;;;;;;23.40;96070.00;;;;5066853;28;1843;-40
2020/12/05 09:35:01;;;;;;;;;;;;;23.40;96061.00;;;;5066683;28;1946;-40
2020/12/05 09:37:27;;;;;;;;;;;;;23.50;96058.00;;;;5067019;28;1863;-41
2020/12/05 09:39:53;;;;;;;;;;;;;23.50;96064.00;;;;5071234;28;1597;-40
2020/12/05 09:42:22;;;;;;;;;;;;;23.60;96064.00;;;;5070503;28;2176;-41
2020/12/05 09:44:48;;;;;;;;;;;;;23.60;96066.00;;;;5072511;28;1903;-40
2020/12/05 09:47:15;;;;;;;;;;;;;23.40;96058.00;;;;5073784;28;1137;-40
2020/12/05 09:49:41;;;;;;;;;;;;;23.50;96072.00;;;;5073616;28;1212;-39
2020/12/05 09:52:07;;;;;;;;;;;;;23.60;96073.00;;;;5073567;28;1223;-40
2020/12/05 09:54:36;;;;;;;;;;;;;23.60;96068.00;;;;5073385;28;1191;-39
2020/12/05 09:57:02;;;;;;;;;;;;;23.70;96078.00;;;;5073256;28;1161;-39
2020/12/05 09:59:28;;;;;;;;;;;;;23.70;96072.00;;;;5070789;28;1193;-39
2020/12/05 10:01:54;;;;;;;;;;;;;25.00;96073.00;;;;5073482;28;1918;-38
2020/12/05 10:04:20;;;;;;;;;;;;;26.20;96071.00;;;;5071884;28;1208;-41
2020/12/05 10:06:46;;;;;;;;;;;;;26.40;96067.00;;;;5073242;28;1984;-44
2020/12/05 10:09:12;;;;;;;;;;;;;26.50;96068.00;;;;5073349;28;1361;-43
2020/12/05 10:11:38;;;;;;;;;;;;;26.60;96069.00;;;;5067798;28;1549;-43
2020/12/05 10:14:05;;;;;;;;;;;;;26.60;96069.00;;;;5072267;28;1244;-42
2020/12/05 10:16:31;;;;;;;;;;;;;26.70;96069.00;;;;5072902;28;1512;-36
2020/12/05 10:18:57;;;;;;;;;;;;;26.70;96057.00;;;;5070920;28;1291;-39
2020/12/05 10:21:24;;;;;;;;;;;;;26.80;96057.00;;;;5069270;28;1636;-38
2020/12/05 10:23:50;;;;;;;;;;;;;26.90;96057.00;;;;5068922;28;1217;-39
2020/12/05 10:26:16;;;;;;;;;;;;;26.90;96058.00;;;;5071464;28;1902;-38
2020/12/05 10:28:42;;;;;;;;;;;;;27.00;96053.00;;;;5072165;28;1120;-34
2020/12/05 10:31:08;;;;;;;;;;;;;27.00;96053.00;;;;5072707;28;1300;-43
2020/12/05 10:33:34;;;;;;;;;;;;;27.00;96051.00;;;;5071481;28;1141;-38
2020/12/05 10:36:00;;;;;;;;;;;;;27.00;96056.00;;;;5069372;28;1846;-37
2020/12/05 10:38:27;;;;;;;;;;;;;27.00;96052.00;;;;5053052;28;1112;-43
2020/12/05 10:40:53;;;;;;;;;;;;;27.00;96049.00;;;;5052849;28;1217;-44
2020/12/05 10:43:19;;;;;;;;;;;;;27.10;96049.00;;;;5070539;28;1760;-47
2020/12/05 10:45:45;;;;;;;;;;;;;27.10;96061.00;;;;5072850;28;1956;-36
2020/12/05 10:48:11;;;;;;;;;;;;;27.10;96061.00;;;;5072889;28;1274;-34
2020/12/05 10:50:37;;;;;;;;;;;;;27.20;96067.00;;;;5065882;28;1315;-37
2020/12/05 10:53:03;;;;;;;;;;;;;27.20;96062.00;;;;5069208;28;1235;-37
2020/12/05 10:55:30;;;;;;;;;;;;;27.20;96062.00;;;;5067577;28;1597;-35
2020/12/05 10:57:56;;;;;;;;;;;;;27.20;96072.00;;;;5072199;28;1490;-36
2020/12/05 11:00:22;;;;;;;;;;;;;27.20;96061.00;;;;5063911;28;1708;-44
2020/12/05 11:02:48;;;;;;;;;;;;;27.30;96055.00;;;;5070968;28;1284;-43
2020/12/05 11:05:14;;;;;;;;;;;;;27.30;96063.00;;;;5072122;28;1926;-44
2020/12/05 11:07:40;;;;;;;;;;;;;27.30;96067.00;;;;5072751;28;1080;-43
2020/12/05 11:10:06;;;;;;;;;;;;;27.40;96069.00;;;;5072435;28;1241;-44
2020/12/05 11:12:33;;;;;;;;;;;;;27.40;96069.00;;;;5068880;28;1358;-44
2020/12/05 11:14:59;;;;;;;;;;;;;27.40;96073.00;;;;5071190;28;1268;-44
2020/12/05 11:17:25;;;;;;;;;;;;;27.40;96065.00;;;;5071834;28;1244;-40
2020/12/05 11:19:51;;;;;;;;;;;;;27.20;96061.00;;;;5071646;28;1268;-40
2020/12/05 11:22:17;;;;;;;;;;;;;27.50;96053.00;;;;5068975;28;1402;-39
2020/12/05 11:24:43;;;;;;;;;;;;;27.50;96057.00;;;;5071718;28;1985;-36
2020/12/05 11:27:08;;;;;;;;;;;;;27.50;96062.00;;;;5071831;28;1296;-39
2020/12/05 11:29:35;;;;;;;;;;;;;27.50;96061.00;;;;5072276;28;1200;-36
2020/12/05 11:32:01;;;;;;;;;;;;;27.50;96071.00;;;;5069726;28;1286;-40
2020/12/05 11:34:27;;;;;;;;;;;;;27.50;96062.00;;;;5071797;28;1799;-40
2020/12/05 11:36:53;;;;;;;;;;;;;27.50;96059.00;;;;5076450;28;1854;-40
2020/12/05 11:39:19;;;;;;;;;;;;;27.50;96048.00;;;;5075777;28;1386;-38
2020/12/05 11:41:46;;;;;;;;;;;;;27.50;96050.00;;;;5070326;28;1278;-39
2020/12/05 11:44:12;;;;;;;;;;;;;27.50;96051.00;;;;5071343;28;1192;-39
2020/12/05 11:46:39;;;;;;;;;;;;;27.50;96047.00;;;;5070679;28;1898;-37
2020/12/05 11:49:05;;;;;;;;;;;;;27.50;96046.00;;;;5069423;28;1174;-38
2020/12/05 11:51:31;;;;;;;;;;;;;27.50;96053.00;;;;5069271;28;1412;-40
2020/12/05 11:53:57;;;;;;;;;;;;;27.60;96043.00;;;;5071710;28;1249;-39
2020/12/05 11:56:23;;;;;;;;;;;;;27.50;96043.00;;;;5068639;28;1155;-40
2020/12/05 11:58:49;;;;;;;;;;;;;27.60;96045.00;;;;5070989;28;1205;-41
2020/12/05 12:01:15;;;;;;;;;;;;;27.60;96041.00;;;;5070954;28;1375;-39
2020/12/05 12:03:42;;;;;;;;;;;;;27.60;96034.00;;;;5070976;28;1265;-40
2020/12/05 12:06:13;;;;;;;;;;;;;27.30;96036.00;;;;5070612;28;1968;-39
2020/12/05 12:08:39;;;;;;;;;;;;;27.30;96030.00;;;;5070154;28;1024;-41
2020/12/05 12:11:05;;;;;;;;;;;;;27.30;96030.00;;;;5070529;28;1244;-39
2020/12/05 12:13:30;;;;;;;;;;;;;27.10;96029.00;;;;5071575;28;1193;-42
2020/12/05 12:15:56;;;;;;;;;;;;;26.90;96034.00;;;;5071526;28;1509;-41
2020/12/05 12:18:22;;;;;;;;;;;;;27.40;96040.00;;;;5071614;28;1180;-43
